sensor_id;sensor_type;location;lat;lon;timestamp;temperature;humidity
4425;DHT22;2225;53.568;13.266;2022-12-18T00:01:34;-1.00;93.10
4425;DHT22;2225;53.568;13.266;2022-12-18T00:04:06;-1.00;93.00
4425;DHT22;2225;53.568;13.266;2022-12-18T00:06:35;-1.00;93.00
4425;DHT22;2225;53.568;13.266;2022-12-18T00:09:03;-1.00;93.10
4425;DHT22;2225;53.568;13.266;2022-12-18T00:11:31;-1.00;93.00
4425;DHT22;2225;53.568;13.266;2022-12-18T00:13:59;-1.00;92.90
4425;DHT22;2225;53.568;13.266;2022-12-18T00:16:27;-1.00;93.00
4425;DHT22;2225;53.568;13.266;2022-12-18T00:18:57;-1.00;92.90
4425;DHT22;2225;53.568;13.266;2022-12-18T00:21:24;-1.00;93.00
4425;DHT22;2225;53.568;13.266;2022-12-18T00:23:51;-1.10;93.00
4425;DHT22;2225;53.568;13.266;2022-12-18T00:26:20;-1.00;93.00
4425;DHT22;2225;53.568;13.266;2022-12-18T00:28:53;-1.00;93.00
4425;DHT22;2225;53.568;13.266;2022-12-18T00:31:23;-1.10;93.00
4425;DHT22;2225;53.568;13.266;2022-12-18T00:33:54;-1.10;93.00
4425;DHT22;2225;53.568;13.266;2022-12-18T00:36:24;-1.10;92.80
4425;DHT22;2225;53.568;13.266;2022-12-18T00:38:55;-1.10;92.70
4425;DHT22;2225;53.568;13.266;2022-12-18T00:41:23;-1.20;92.70
4425;DHT22;2225;53.568;13.266;2022-12-18T00:44:11;-1.20;92.60
4425;DHT22;2225;53.568;13.266;2022-12-18T00:46:39;-1.20;92.70
4425;DHT22;2225;53.568;13.266;2022-12-18T00:49:06;-1.30;92.60
4425;DHT22;2225;53.568;13.266;2022-12-18T00:51:33;-1.40;92.60
4425;DHT22;2225;53.568;13.266;2022-12-18T00:54:01;-1.40;92.70
4425;DHT22;2225;53.568;13.266;2022-12-18T00:56:27;-1.40;92.60
4425;DHT22;2225;53.568;13.266;2022-12-18T00:58:54;-1.50;92.50
4425;DHT22;2225;53.568;13.266;2022-12-18T01:01:22;-1.50;92.60
4425;DHT22;2225;53.568;13.266;2022-12-18T01:03:49;-1.60;92.60
4425;DHT22;2225;53.568;13.266;2022-12-18T01:06:16;-1.50;92.70
4425;DHT22;2225;53.568;13.266;2022-12-18T01:08:44;-1.60;92.70
4425;DHT22;2225;53.568;13.266;2022-12-18T01:11:14;-1.60;92.70
4425;DHT22;2225;53.568;13.266;2022-12-18T01:13:45;-1.60;92.60
4425;DHT22;2225;53.568;13.266;2022-12-18T01:16:14;-1.60;92.60
4425;DHT22;2225;53.568;13.266;2022-12-18T01:18:42;-1.70;92.60
4425;DHT22;2225;53.568;13.266;2022-12-18T01:21:12;-1.70;92.60
4425;DHT22;2225;53.568;13.266;2022-12-18T01:23:40;-1.70;92.70
4425;DHT22;2225;53.568;13.266;2022-12-18T01:26:15;-1.80;92.70
4425;DHT22;2225;53.568;13.266;2022-12-18T01:28:43;-1.80;92.70
4425;DHT22;2225;53.568;13.266;2022-12-18T01:31:28;-1.80;92.70
4425;DHT22;2225;53.568;13.266;2022-12-18T01:33:56;-1.80;92.70
4425;DHT22;2225;53.568;13.266;2022-12-18T01:36:29;-1.80;92.70
4425;DHT22;2225;53.568;13.266;2022-12-18T01:39:03;-1.80;92.60
4425;DHT22;2225;53.568;13.266;2022-12-18T01:41:33;-1.90;92.60
4425;DHT22;2225;53.568;13.266;2022-12-18T01:44:51;-1.90;92.60
4425;DHT22;2225;53.568;13.266;2022-12-18T01:47:46;-2.00;92.70
4425;DHT22;2225;53.568;13.266;2022-12-18T01:50:43;-2.00;92.70
4425;DHT22;2225;53.568;13.266;2022-12-18T01:53:20;-2.10;92.80
4425;DHT22;2225;53.568;13.266;2022-12-18T01:55:53;-2.20;92.90
4425;DHT22;2225;53.568;13.266;2022-12-18T01:58:30;-2.20;93.00
4425;DHT22;2225;53.568;13.266;2022-12-18T02:01:02;-2.30;93.00
4425;DHT22;2225;53.568;13.266;2022-12-18T02:03:31;-2.30;93.00
4425;DHT22;2225;53.568;13.266;2022-12-18T02:09:10;-2.40;93.20
4425;DHT22;2225;53.568;13.266;2022-12-18T02:11:54;-2.50;93.20
4425;DHT22;2225;53.568;13.266;2022-12-18T02:14:59;-2.50;93.20
4425;DHT22;2225;53.568;13.266;2022-12-18T02:17:56;-2.60;93.30
4425;DHT22;2225;53.568;13.266;2022-12-18T02:20:35;-2.70;93.30
4425;DHT22;2225;53.568;13.266;2022-12-18T02:23:31;-2.70;93.40
4425;DHT22;2225;53.568;13.266;2022-12-18T02:26:27;-2.70;93.40
4425;DHT22;2225;53.568;13.266;2022-12-18T02:29:15;-2.80;93.40
4425;DHT22;2225;53.568;13.266;2022-12-18T02:31:50;-2.80;93.50
4425;DHT22;2225;53.568;13.266;2022-12-18T02:34:22;-2.80;93.50
4425;DHT22;2225;53.568;13.266;2022-12-18T02:36:51;-2.90;93.90
4425;DHT22;2225;53.568;13.266;2022-12-18T02:39:20;-2.90;93.50
4425;DHT22;2225;53.568;13.266;2022-12-18T02:41:57;-2.90;93.60
4425;DHT22;2225;53.568;13.266;2022-12-18T02:44:25;-2.90;93.60
4425;DHT22;2225;53.568;13.266;2022-12-18T02:46:53;-3.00;93.60
4425;DHT22;2225;53.568;13.266;2022-12-18T02:49:44;-3.00;93.70
4425;DHT22;2225;53.568;13.266;2022-12-18T02:52:51;-3.00;93.70
4425;DHT22;2225;53.568;13.266;2022-12-18T02:55:37;-3.00;93.70
4425;DHT22;2225;53.568;13.266;2022-12-18T03:01:53;-3.00;93.70
4425;DHT22;2225;53.568;13.266;2022-12-18T03:04:38;-3.00;93.80
4425;DHT22;2225;53.568;13.266;2022-12-18T03:07:11;-3.10;93.70
4425;DHT22;2225;53.568;13.266;2022-12-18T03:09:46;-3.10;93.70
4425;DHT22;2225;53.568;13.266;2022-12-18T03:12:19;-3.10;93.80
4425;DHT22;2225;53.568;13.266;2022-12-18T03:15:11;-3.20;94.20
4425;DHT22;2225;53.568;13.266;2022-12-18T03:18:01;-3.20;94.00
4425;DHT22;2225;53.568;13.266;2022-12-18T03:20:34;-3.20;94.10
4425;DHT22;2225;53.568;13.266;2022-12-18T03:23:09;-3.20;94.10
4425;DHT22;2225;53.568;13.266;2022-12-18T03:25:42;-3.20;94.10
4425;DHT22;2225;53.568;13.266;2022-12-18T03:28:20;-3.20;94.20
4425;DHT22;2225;53.568;13.266;2022-12-18T03:30:57;-3.30;94.30
4425;DHT22;2225;53.568;13.266;2022-12-18T03:33:36;-3.30;94.30
4425;DHT22;2225;53.568;13.266;2022-12-18T03:36:07;-3.30;94.30
4425;DHT22;2225;53.568;13.266;2022-12-18T03:38:34;-3.30;94.30
4425;DHT22;2225;53.568;13.266;2022-12-18T03:41:15;-3.30;94.20
4425;DHT22;2225;53.568;13.266;2022-12-18T03:44:24;-3.20;94.30
4425;DHT22;2225;53.568;13.266;2022-12-18T03:47:04;-3.20;94.30
4425;DHT22;2225;53.568;13.266;2022-12-18T03:50:08;-3.20;94.30
4425;DHT22;2225;53.568;13.266;2022-12-18T03:52:52;-3.20;94.30
4425;DHT22;2225;53.568;13.266;2022-12-18T03:55:23;-3.20;94.30
4425;DHT22;2225;53.568;13.266;2022-12-18T03:57:57;-3.20;94.30
4425;DHT22;2225;53.568;13.266;2022-12-18T04:00:30;-3.20;94.30
4425;DHT22;2225;53.568;13.266;2022-12-18T04:03:05;-3.20;94.50
4425;DHT22;2225;53.568;13.266;2022-12-18T04:05:42;-3.20;94.40
4425;DHT22;2225;53.568;13.266;2022-12-18T04:08:11;-3.20;94.40
4425;DHT22;2225;53.568;13.266;2022-12-18T04:10:42;-3.20;94.50
4425;DHT22;2225;53.568;13.266;2022-12-18T04:13:11;-3.20;94.50
4425;DHT22;2225;53.568;13.266;2022-12-18T04:15:38;-3.20;94.50
4425;DHT22;2225;53.568;13.266;2022-12-18T04:18:09;-3.20;94.50
4425;DHT22;2225;53.568;13.266;2022-12-18T04:20:40;-3.30;94.50
4425;DHT22;2225;53.568;13.266;2022-12-18T04:23:07;-3.20;94.60
4425;DHT22;2225;53.568;13.266;2022-12-18T04:25:36;-3.30;94.60
4425;DHT22;2225;53.568;13.266;2022-12-18T04:28:06;-3.30;94.60
4425;DHT22;2225;53.568;13.266;2022-12-18T04:30:34;-3.30;94.70
4425;DHT22;2225;53.568;13.266;2022-12-18T04:33:01;-3.20;94.60
4425;DHT22;2225;53.568;13.266;2022-12-18T04:35:30;-3.20;94.70
4425;DHT22;2225;53.568;13.266;2022-12-18T04:37:58;-3.20;95.10
4425;DHT22;2225;53.568;13.266;2022-12-18T04:40:26;-3.20;94.70
4425;DHT22;2225;53.568;13.266;2022-12-18T04:42:53;-3.20;94.60
4425;DHT22;2225;53.568;13.266;2022-12-18T04:45:20;-3.20;94.60
4425;DHT22;2225;53.568;13.266;2022-12-18T04:47:47;-3.20;94.60
4425;DHT22;2225;53.568;13.266;2022-12-18T04:50:14;-3.20;94.60
4425;DHT22;2225;53.568;13.266;2022-12-18T04:52:41;-3.20;94.60
4425;DHT22;2225;53.568;13.266;2022-12-18T04:55:08;-3.20;94.60
4425;DHT22;2225;53.568;13.266;2022-12-18T04:57:35;-3.20;94.60
4425;DHT22;2225;53.568;13.266;2022-12-18T05:00:03;-3.20;94.50
4425;DHT22;2225;53.568;13.266;2022-12-18T05:02:30;-3.10;94.50
4425;DHT22;2225;53.568;13.266;2022-12-18T05:04:57;-3.10;94.50
4425;DHT22;2225;53.568;13.266;2022-12-18T05:07:24;-3.10;94.40
4425;DHT22;2225;53.568;13.266;2022-12-18T05:09:51;-3.10;94.40
4425;DHT22;2225;53.568;13.266;2022-12-18T05:12:18;-3.10;94.30
4425;DHT22;2225;53.568;13.266;2022-12-18T05:14:45;-3.10;94.30
4425;DHT22;2225;53.568;13.266;2022-12-18T05:17:12;-3.10;94.30
4425;DHT22;2225;53.568;13.266;2022-12-18T05:19:38;-3.10;94.30
4425;DHT22;2225;53.568;13.266;2022-12-18T05:22:05;-3.00;94.30
4425;DHT22;2225;53.568;13.266;2022-12-18T05:24:32;-3.10;94.40
4425;DHT22;2225;53.568;13.266;2022-12-18T05:26:59;-3.10;94.40
4425;DHT22;2225;53.568;13.266;2022-12-18T05:29:26;-3.10;94.40
4425;DHT22;2225;53.568;13.266;2022-12-18T05:31:53;-3.10;94.40
4425;DHT22;2225;53.568;13.266;2022-12-18T05:34:20;-3.10;94.30
4425;DHT22;2225;53.568;13.266;2022-12-18T05:36:47;-3.10;94.20
4425;DHT22;2225;53.568;13.266;2022-12-18T05:39:14;-3.10;94.10
4425;DHT22;2225;53.568;13.266;2022-12-18T05:41:41;-3.10;94.10
4425;DHT22;2225;53.568;13.266;2022-12-18T05:44:08;-3.10;94.10
4425;DHT22;2225;53.568;13.266;2022-12-18T05:46:36;-3.10;94.10
4425;DHT22;2225;53.568;13.266;2022-12-18T05:49:05;-3.10;94.00
4425;DHT22;2225;53.568;13.266;2022-12-18T05:51:32;-3.10;94.10
4425;DHT22;2225;53.568;13.266;2022-12-18T05:53:59;-3.10;94.10
4425;DHT22;2225;53.568;13.266;2022-12-18T05:56:26;-3.10;94.10
4425;DHT22;2225;53.568;13.266;2022-12-18T05:58:54;-3.10;94.10
4425;DHT22;2225;53.568;13.266;2022-12-18T06:01:24;-3.10;94.10
4425;DHT22;2225;53.568;13.266;2022-12-18T06:03:53;-3.10;94.10
4425;DHT22;2225;53.568;13.266;2022-12-18T06:06:23;-3.10;94.10
4425;DHT22;2225;53.568;13.266;2022-12-18T06:08:52;-3.10;94.10
4425;DHT22;2225;53.568;13.266;2022-12-18T06:11:24;-3.10;94.10
4425;DHT22;2225;53.568;13.266;2022-12-18T06:13:54;-3.10;94.10
4425;DHT22;2225;53.568;13.266;2022-12-18T06:16:25;-3.10;94.10
4425;DHT22;2225;53.568;13.266;2022-12-18T06:19:00;-3.10;94.20
4425;DHT22;2225;53.568;13.266;2022-12-18T06:21:28;-3.00;94.30
4425;DHT22;2225;53.568;13.266;2022-12-18T06:23:55;-3.00;94.40
4425;DHT22;2225;53.568;13.266;2022-12-18T06:26:23;-3.00;94.40
4425;DHT22;2225;53.568;13.266;2022-12-18T06:28:54;-2.90;94.50
4425;DHT22;2225;53.568;13.266;2022-12-18T06:31:21;-2.90;94.60
4425;DHT22;2225;53.568;13.266;2022-12-18T06:33:48;-2.80;94.60
4425;DHT22;2225;53.568;13.266;2022-12-18T06:36:15;-2.80;94.80
4425;DHT22;2225;53.568;13.266;2022-12-18T06:38:43;-2.80;95.00
4425;DHT22;2225;53.568;13.266;2022-12-18T06:41:13;-2.70;95.20
4425;DHT22;2225;53.568;13.266;2022-12-18T06:43:41;-2.80;95.40
4425;DHT22;2225;53.568;13.266;2022-12-18T06:46:10;-2.80;95.40
4425;DHT22;2225;53.568;13.266;2022-12-18T06:48:37;-2.80;95.50
4425;DHT22;2225;53.568;13.266;2022-12-18T06:51:04;-2.80;95.60
4425;DHT22;2225;53.568;13.266;2022-12-18T06:53:32;-2.80;95.70
4425;DHT22;2225;53.568;13.266;2022-12-18T06:56:04;-2.80;95.70
4425;DHT22;2225;53.568;13.266;2022-12-18T06:58:35;-2.80;95.70
4425;DHT22;2225;53.568;13.266;2022-12-18T07:01:04;-2.80;95.60
4425;DHT22;2225;53.568;13.266;2022-12-18T07:03:33;-2.80;95.60
4425;DHT22;2225;53.568;13.266;2022-12-18T07:06:00;-2.80;95.50
4425;DHT22;2225;53.568;13.266;2022-12-18T07:08:30;-2.70;95.40
4425;DHT22;2225;53.568;13.266;2022-12-18T07:10:57;-2.70;95.40
4425;DHT22;2225;53.568;13.266;2022-12-18T07:13:24;-2.70;95.40
4425;DHT22;2225;53.568;13.266;2022-12-18T07:15:51;-2.70;95.40
4425;DHT22;2225;53.568;13.266;2022-12-18T07:18:18;-2.70;95.40
4425;DHT22;2225;53.568;13.266;2022-12-18T07:20:45;-2.70;95.40
4425;DHT22;2225;53.568;13.266;2022-12-18T07:23:13;-2.70;95.30
4425;DHT22;2225;53.568;13.266;2022-12-18T07:25:40;-2.70;95.40
4425;DHT22;2225;53.568;13.266;2022-12-18T07:28:07;-2.60;95.40
4425;DHT22;2225;53.568;13.266;2022-12-18T07:30:41;-2.60;95.30
4425;DHT22;2225;53.568;13.266;2022-12-18T07:33:08;-2.60;95.30
4425;DHT22;2225;53.568;13.266;2022-12-18T07:35:38;-2.50;95.30
4425;DHT22;2225;53.568;13.266;2022-12-18T07:38:05;-2.50;95.40
4425;DHT22;2225;53.568;13.266;2022-12-18T07:40:32;-2.50;95.40
4425;DHT22;2225;53.568;13.266;2022-12-18T07:42:59;-2.40;95.50
4425;DHT22;2225;53.568;13.266;2022-12-18T07:45:26;-2.40;95.80
4425;DHT22;2225;53.568;13.266;2022-12-18T07:47:56;-2.40;95.40
4425;DHT22;2225;53.568;13.266;2022-12-18T07:50:22;-2.30;95.40
4425;DHT22;2225;53.568;13.266;2022-12-18T07:52:50;-2.30;95.30
4425;DHT22;2225;53.568;13.266;2022-12-18T07:55:17;-2.30;95.30
4425;DHT22;2225;53.568;13.266;2022-12-18T07:57:44;-2.30;95.30
4425;DHT22;2225;53.568;13.266;2022-12-18T08:00:18;-2.30;95.20
4425;DHT22;2225;53.568;13.266;2022-12-18T08:02:46;-2.30;95.20
4425;DHT22;2225;53.568;13.266;2022-12-18T08:05:14;-2.30;95.20
4425;DHT22;2225;53.568;13.266;2022-12-18T08:07:41;-2.30;95.20
4425;DHT22;2225;53.568;13.266;2022-12-18T08:10:08;-2.40;95.20
4425;DHT22;2225;53.568;13.266;2022-12-18T08:12:35;-2.40;95.30
4425;DHT22;2225;53.568;13.266;2022-12-18T08:15:02;-2.40;95.30
4425;DHT22;2225;53.568;13.266;2022-12-18T08:17:30;-2.40;95.40
4425;DHT22;2225;53.568;13.266;2022-12-18T08:19:56;-2.40;95.50
4425;DHT22;2225;53.568;13.266;2022-12-18T08:22:24;-2.40;95.50
4425;DHT22;2225;53.568;13.266;2022-12-18T08:24:51;-2.40;95.50
4425;DHT22;2225;53.568;13.266;2022-12-18T08:27:17;-2.40;95.50
4425;DHT22;2225;53.568;13.266;2022-12-18T08:30:00;-2.30;95.60
4425;DHT22;2225;53.568;13.266;2022-12-18T08:32:28;-2.30;95.60
4425;DHT22;2225;53.568;13.266;2022-12-18T08:34:56;-2.30;95.60
4425;DHT22;2225;53.568;13.266;2022-12-18T08:37:22;-2.30;95.60
4425;DHT22;2225;53.568;13.266;2022-12-18T08:39:49;-2.30;95.60
4425;DHT22;2225;53.568;13.266;2022-12-18T08:42:16;-2.20;95.60
4425;DHT22;2225;53.568;13.266;2022-12-18T08:45:03;-2.20;95.60
4425;DHT22;2225;53.568;13.266;2022-12-18T08:47:30;-2.10;95.60
4425;DHT22;2225;53.568;13.266;2022-12-18T08:49:56;-2.10;95.40
4425;DHT22;2225;53.568;13.266;2022-12-18T08:52:23;-2.10;95.40
4425;DHT22;2225;53.568;13.266;2022-12-18T08:54:50;-2.10;95.20
4425;DHT22;2225;53.568;13.266;2022-12-18T08:57:17;-2.00;95.20
4425;DHT22;2225;53.568;13.266;2022-12-18T08:59:44;-2.00;95.20
4425;DHT22;2225;53.568;13.266;2022-12-18T09:02:11;-2.00;95.10
4425;DHT22;2225;53.568;13.266;2022-12-18T09:04:39;-1.90;95.20
4425;DHT22;2225;53.568;13.266;2022-12-18T09:07:06;-1.90;95.10
4425;DHT22;2225;53.568;13.266;2022-12-18T09:09:33;-1.90;95.10
4425;DHT22;2225;53.568;13.266;2022-12-18T09:12:00;-1.90;95.00
4425;DHT22;2225;53.568;13.266;2022-12-18T09:14:27;-1.80;95.00
4425;DHT22;2225;53.568;13.266;2022-12-18T09:16:54;-1.70;95.10
4425;DHT22;2225;53.568;13.266;2022-12-18T09:19:21;-1.70;95.10
4425;DHT22;2225;53.568;13.266;2022-12-18T09:21:48;-1.70;94.90
4425;DHT22;2225;53.568;13.266;2022-12-18T09:24:16;-1.70;94.80
4425;DHT22;2225;53.568;13.266;2022-12-18T09:26:43;-1.60;94.80
4425;DHT22;2225;53.568;13.266;2022-12-18T09:29:13;-1.60;94.60
4425;DHT22;2225;53.568;13.266;2022-12-18T09:31:44;-1.60;94.50
4425;DHT22;2225;53.568;13.266;2022-12-18T09:34:11;-1.60;94.30
4425;DHT22;2225;53.568;13.266;2022-12-18T09:36:38;-1.60;94.30
4425;DHT22;2225;53.568;13.266;2022-12-18T09:39:05;-1.60;94.20
4425;DHT22;2225;53.568;13.266;2022-12-18T09:41:55;-1.70;94.30
4425;DHT22;2225;53.568;13.266;2022-12-18T09:44:24;-1.60;94.40
4425;DHT22;2225;53.568;13.266;2022-12-18T09:47:20;-1.70;94.50
4425;DHT22;2225;53.568;13.266;2022-12-18T09:49:55;-1.70;94.50
4425;DHT22;2225;53.568;13.266;2022-12-18T09:52:34;-1.60;94.60
4425;DHT22;2225;53.568;13.266;2022-12-18T09:55:16;-1.60;94.70
4425;DHT22;2225;53.568;13.266;2022-12-18T09:57:51;-1.60;94.70
4425;DHT22;2225;53.568;13.266;2022-12-18T10:00:23;-1.60;94.70
4425;DHT22;2225;53.568;13.266;2022-12-18T10:02:53;-1.60;94.50
4425;DHT22;2225;53.568;13.266;2022-12-18T10:06:02;-1.60;94.40
4425;DHT22;2225;53.568;13.266;2022-12-18T10:17:41;-1.60;94.60
4425;DHT22;2225;53.568;13.266;2022-12-18T10:20:44;-1.60;94.70
4425;DHT22;2225;53.568;13.266;2022-12-18T10:23:21;-1.60;94.60
4425;DHT22;2225;53.568;13.266;2022-12-18T10:26:04;-1.60;94.70
4425;DHT22;2225;53.568;13.266;2022-12-18T10:28:35;-1.50;94.50
4425;DHT22;2225;53.568;13.266;2022-12-18T10:31:19;-1.60;94.50
4425;DHT22;2225;53.568;13.266;2022-12-18T10:33:50;-1.50;94.50
4425;DHT22;2225;53.568;13.266;2022-12-18T10:36:18;-1.50;94.50
4425;DHT22;2225;53.568;13.266;2022-12-18T10:38:44;-1.50;94.40
4425;DHT22;2225;53.568;13.266;2022-12-18T10:43:47;-1.50;94.50
4425;DHT22;2225;53.568;13.266;2022-12-18T10:46:17;-1.50;94.60
4425;DHT22;2225;53.568;13.266;2022-12-18T10:56:29;-1.40;94.60
4425;DHT22;2225;53.568;13.266;2022-12-18T11:01:52;-1.40;94.60
4425;DHT22;2225;53.568;13.266;2022-12-18T11:04:22;-1.40;94.50
4425;DHT22;2225;53.568;13.266;2022-12-18T11:07:04;-1.40;94.50
4425;DHT22;2225;53.568;13.266;2022-12-18T11:09:37;-1.30;94.60
4425;DHT22;2225;53.568;13.266;2022-12-18T11:12:19;-1.30;94.50
4425;DHT22;2225;53.568;13.266;2022-12-18T11:14:49;-1.30;94.30
4425;DHT22;2225;53.568;13.266;2022-12-18T11:17:24;-1.30;94.40
4425;DHT22;2225;53.568;13.266;2022-12-18T11:20:05;-1.20;94.40
4425;DHT22;2225;53.568;13.266;2022-12-18T11:22:35;-1.20;94.30
4425;DHT22;2225;53.568;13.266;2022-12-18T11:25:18;-1.20;94.30
4425;DHT22;2225;53.568;13.266;2022-12-18T11:28:02;-1.10;94.30
4425;DHT22;2225;53.568;13.266;2022-12-18T11:30:33;-1.10;94.30
4425;DHT22;2225;53.568;13.266;2022-12-18T11:33:22;-1.00;94.20
4425;DHT22;2225;53.568;13.266;2022-12-18T11:35:55;-1.00;94.10
4425;DHT22;2225;53.568;13.266;2022-12-18T11:38:37;-1.00;94.00
4425;DHT22;2225;53.568;13.266;2022-12-18T11:44:21;-1.00;94.10
4425;DHT22;2225;53.568;13.266;2022-12-18T11:47:03;-1.00;94.10
4425;DHT22;2225;53.568;13.266;2022-12-18T11:49:36;-1.00;94.10
4425;DHT22;2225;53.568;13.266;2022-12-18T11:52:19;-0.90;94.20
4425;DHT22;2225;53.568;13.266;2022-12-18T11:54:55;-0.90;94.00
4425;DHT22;2225;53.568;13.266;2022-12-18T12:00:30;-0.80;94.00
4425;DHT22;2225;53.568;13.266;2022-12-18T12:06:18;-0.80;93.80
4425;DHT22;2225;53.568;13.266;2022-12-18T12:12:16;-0.80;93.70
4425;DHT22;2225;53.568;13.266;2022-12-18T12:18:33;-0.90;93.90
4425;DHT22;2225;53.568;13.266;2022-12-18T12:21:33;-0.80;93.90
4425;DHT22;2225;53.568;13.266;2022-12-18T12:24:27;-0.80;93.90
4425;DHT22;2225;53.568;13.266;2022-12-18T12:27:19;-0.80;93.80
4425;DHT22;2225;53.568;13.266;2022-12-18T12:30:20;-0.80;93.80
4425;DHT22;2225;53.568;13.266;2022-12-18T12:33:28;-0.80;93.90
4425;DHT22;2225;53.568;13.266;2022-12-18T12:36:35;-0.80;93.80
4425;DHT22;2225;53.568;13.266;2022-12-18T12:39:10;-0.80;93.90
4425;DHT22;2225;53.568;13.266;2022-12-18T12:41:42;-0.80;93.90
4425;DHT22;2225;53.568;13.266;2022-12-18T12:44:37;-0.80;93.90
4425;DHT22;2225;53.568;13.266;2022-12-18T12:47:16;-0.80;93.90
4425;DHT22;2225;53.568;13.266;2022-12-18T12:49:48;-0.80;94.00
4425;DHT22;2225;53.568;13.266;2022-12-18T12:52:36;-0.80;94.00
4425;DHT22;2225;53.568;13.266;2022-12-18T12:55:12;-0.80;94.00
4425;DHT22;2225;53.568;13.266;2022-12-18T12:57:55;-0.80;94.00
4425;DHT22;2225;53.568;13.266;2022-12-18T13:01:08;-0.70;94.00
4425;DHT22;2225;53.568;13.266;2022-12-18T13:10:19;-0.60;94.10
4425;DHT22;2225;53.568;13.266;2022-12-18T13:13:04;-0.60;93.80
4425;DHT22;2225;53.568;13.266;2022-12-18T13:15:45;-0.50;94.00
4425;DHT22;2225;53.568;13.266;2022-12-18T13:18:24;-0.50;94.00
4425;DHT22;2225;53.568;13.266;2022-12-18T13:21:05;-0.40;93.90
4425;DHT22;2225;53.568;13.266;2022-12-18T13:23:42;-0.40;93.70
4425;DHT22;2225;53.568;13.266;2022-12-18T13:34:25;-0.40;93.30
4425;DHT22;2225;53.568;13.266;2022-12-18T13:39:58;-0.50;93.50
4425;DHT22;2225;53.568;13.266;2022-12-18T13:42:38;-0.50;93.50
4425;DHT22;2225;53.568;13.266;2022-12-18T13:45:40;-0.50;93.50
4425;DHT22;2225;53.568;13.266;2022-12-18T13:48:25;-0.60;93.60
4425;DHT22;2225;53.568;13.266;2022-12-18T13:51:13;-0.60;93.60
4425;DHT22;2225;53.568;13.266;2022-12-18T13:53:46;-0.60;93.70
4425;DHT22;2225;53.568;13.266;2022-12-18T13:56:23;-0.60;93.70
4425;DHT22;2225;53.568;13.266;2022-12-18T14:04:29;-0.60;93.70
4425;DHT22;2225;53.568;13.266;2022-12-18T14:07:22;-0.60;94.10
4425;DHT22;2225;53.568;13.266;2022-12-18T14:09:53;-0.60;94.10
4425;DHT22;2225;53.568;13.266;2022-12-18T14:12:50;-0.70;93.90
4425;DHT22;2225;53.568;13.266;2022-12-18T14:17:57;-0.80;94.30
4425;DHT22;2225;53.568;13.266;2022-12-18T14:20:27;-0.90;94.40
4425;DHT22;2225;53.568;13.266;2022-12-18T14:22:58;-0.90;94.50
4425;DHT22;2225;53.568;13.266;2022-12-18T14:25:28;-0.90;94.60
4425;DHT22;2225;53.568;13.266;2022-12-18T14:30:41;-1.00;94.60
4425;DHT22;2225;53.568;13.266;2022-12-18T14:35:43;-1.00;94.60
4425;DHT22;2225;53.568;13.266;2022-12-18T14:38:30;-1.00;94.70
4425;DHT22;2225;53.568;13.266;2022-12-18T14:41:11;-1.00;94.70
4425;DHT22;2225;53.568;13.266;2022-12-18T14:43:41;-1.00;94.60
4425;DHT22;2225;53.568;13.266;2022-12-18T14:46:34;-1.00;94.70
4425;DHT22;2225;53.568;13.266;2022-12-18T14:49:14;-1.00;94.70
4425;DHT22;2225;53.568;13.266;2022-12-18T14:52:26;-1.00;94.70
4425;DHT22;2225;53.568;13.266;2022-12-18T14:54:54;-1.00;94.70
4425;DHT22;2225;53.568;13.266;2022-12-18T14:57:24;-1.00;94.70
4425;DHT22;2225;53.568;13.266;2022-12-18T14:59:52;-1.10;94.60
4425;DHT22;2225;53.568;13.266;2022-12-18T15:02:21;-1.10;94.60
4425;DHT22;2225;53.568;13.266;2022-12-18T15:05:26;-1.10;94.70
4425;DHT22;2225;53.568;13.266;2022-12-18T15:07:57;-1.00;94.70
4425;DHT22;2225;53.568;13.266;2022-12-18T15:10:30;-1.00;94.70
4425;DHT22;2225;53.568;13.266;2022-12-18T15:18:01;-1.00;94.40
4425;DHT22;2225;53.568;13.266;2022-12-18T15:20:33;-1.00;94.50
4425;DHT22;2225;53.568;13.266;2022-12-18T15:26:01;-1.00;94.50
4425;DHT22;2225;53.568;13.266;2022-12-18T15:33:47;-0.90;94.60
4425;DHT22;2225;53.568;13.266;2022-12-18T15:36:29;-0.90;94.40
4425;DHT22;2225;53.568;13.266;2022-12-18T15:38:57;-1.00;94.30
4425;DHT22;2225;53.568;13.266;2022-12-18T15:41:33;-1.00;94.50
4425;DHT22;2225;53.568;13.266;2022-12-18T15:44:02;-1.10;94.60
4425;DHT22;2225;53.568;13.266;2022-12-18T15:46:29;-1.00;94.80
4425;DHT22;2225;53.568;13.266;2022-12-18T15:48:58;-1.00;94.80
4425;DHT22;2225;53.568;13.266;2022-12-18T15:51:33;-1.00;94.70
4425;DHT22;2225;53.568;13.266;2022-12-18T15:54:03;-1.00;94.80
4425;DHT22;2225;53.568;13.266;2022-12-18T15:56:32;-1.00;94.80
4425;DHT22;2225;53.568;13.266;2022-12-18T15:59:19;-1.00;94.80
4425;DHT22;2225;53.568;13.266;2022-12-18T16:01:48;-1.00;94.80
4425;DHT22;2225;53.568;13.266;2022-12-18T16:04:19;-0.90;94.80
4425;DHT22;2225;53.568;13.266;2022-12-18T16:06:48;-1.00;94.80
4425;DHT22;2225;53.568;13.266;2022-12-18T16:09:36;-0.90;94.80
4425;DHT22;2225;53.568;13.266;2022-12-18T16:12:03;-0.90;94.80
4425;DHT22;2225;53.568;13.266;2022-12-18T16:14:32;-0.90;94.80
4425;DHT22;2225;53.568;13.266;2022-12-18T16:17:05;-0.90;94.80
4425;DHT22;2225;53.568;13.266;2022-12-18T16:19:34;-0.90;94.90
4425;DHT22;2225;53.568;13.266;2022-12-18T16:22:05;-0.90;94.80
4425;DHT22;2225;53.568;13.266;2022-12-18T16:24:33;-0.90;94.90
4425;DHT22;2225;53.568;13.266;2022-12-18T16:27:02;-0.80;94.90
4425;DHT22;2225;53.568;13.266;2022-12-18T16:29:29;-0.80;94.80
4425;DHT22;2225;53.568;13.266;2022-12-18T16:31:58;-0.80;94.70
4425;DHT22;2225;53.568;13.266;2022-12-18T16:34:31;-0.80;95.00
4425;DHT22;2225;53.568;13.266;2022-12-18T16:37:04;-0.80;96.80
4425;DHT22;2225;53.568;13.266;2022-12-18T16:39:33;-0.80;97.50
4425;DHT22;2225;53.568;13.266;2022-12-18T16:42:13;-0.70;96.70
4425;DHT22;2225;53.568;13.266;2022-12-18T16:44:44;-0.60;96.30
4425;DHT22;2225;53.568;13.266;2022-12-18T16:47:12;-0.50;96.00
4425;DHT22;2225;53.568;13.266;2022-12-18T16:49:41;-0.50;95.60
4425;DHT22;2225;53.568;13.266;2022-12-18T16:52:08;-0.50;95.70
4425;DHT22;2225;53.568;13.266;2022-12-18T16:54:35;-0.40;95.50
4425;DHT22;2225;53.568;13.266;2022-12-18T16:57:03;-0.40;95.50
4425;DHT22;2225;53.568;13.266;2022-12-18T16:59:34;-0.40;95.50
4425;DHT22;2225;53.568;13.266;2022-12-18T17:02:05;-0.40;95.20
4425;DHT22;2225;53.568;13.266;2022-12-18T17:04:33;-0.30;95.10
4425;DHT22;2225;53.568;13.266;2022-12-18T17:07:00;-0.30;95.20
4425;DHT22;2225;53.568;13.266;2022-12-18T17:09:27;-0.30;95.20
4425;DHT22;2225;53.568;13.266;2022-12-18T17:11:54;-0.20;95.00
4425;DHT22;2225;53.568;13.266;2022-12-18T17:14:23;-0.20;95.40
4425;DHT22;2225;53.568;13.266;2022-12-18T17:16:51;-0.20;95.00
4425;DHT22;2225;53.568;13.266;2022-12-18T17:19:39;-0.20;94.90
4425;DHT22;2225;53.568;13.266;2022-12-18T17:22:06;-0.20;94.50
4425;DHT22;2225;53.568;13.266;2022-12-18T17:24:33;-0.20;94.60
4425;DHT22;2225;53.568;13.266;2022-12-18T17:27:02;-0.20;94.70
4425;DHT22;2225;53.568;13.266;2022-12-18T17:29:29;-0.20;94.80
4425;DHT22;2225;53.568;13.266;2022-12-18T17:31:56;-0.20;94.50
4425;DHT22;2225;53.568;13.266;2022-12-18T17:34:26;-0.20;94.50
4425;DHT22;2225;53.568;13.266;2022-12-18T17:36:53;-0.20;94.50
4425;DHT22;2225;53.568;13.266;2022-12-18T17:39:20;-0.30;94.50
4425;DHT22;2225;53.568;13.266;2022-12-18T17:41:48;-0.30;94.60
4425;DHT22;2225;53.568;13.266;2022-12-18T17:44:16;-0.30;94.70
4425;DHT22;2225;53.568;13.266;2022-12-18T17:46:43;-0.30;94.70
4425;DHT22;2225;53.568;13.266;2022-12-18T17:49:12;-0.30;94.50
4425;DHT22;2225;53.568;13.266;2022-12-18T17:51:40;-0.30;94.80
4425;DHT22;2225;53.568;13.266;2022-12-18T17:54:08;-0.40;94.40